Archival Weather

Vermilion Rgnl

Danville, Illinois (KDNV)

Report from: Tuesday, March 26, 2024 7:55 AM CDT
Current time: Sunday, July 14, 2024 6:22 AM CDT

Current weather – Weather history – Daily summaries
Weather forecast

Temperature12.5°C (54.5°F)
Dew point10.7°C (51.3°F)
Winds 17 kts (8.7 m/s, 19.6 mph) South (180°)
Wind gusts 20 kts (10.3 m/s, 23 mph)
Visibility10 mi. (16.1 km)
Clouds Ceiling: Overcast 1,100 ft. (335 m)
Altimeter29.52 in.Hg (1000 mB)
Relative humidity89 %
Density altitude347 ft. (106 m)
Remarks Fully automated report
Automated weather observing station with precipitation discriminator
Flight conditions Marginal Visual Meteorological Conditions
Raw dataKDNV 261255Z AUTO 18017G20KT 10SM OVC011 13/11 A2952 RMK AO2 T01250107
An error has occurred. This application may no longer respond until reloaded. Reload 🗙